sensor_id;sensor_type;location;lat;lon;timestamp;P1;durP1;ratioP1;P2;durP2;ratioP2
13374;SDS011;6756;51.354;15.754;2023-03-01T00:02:19;42.53;;;19.50;;
13374;SDS011;6756;51.354;15.754;2023-03-01T00:06:20;43.73;;;18.93;;
13374;SDS011;6756;51.354;15.754;2023-03-01T00:10:22;37.60;;;16.40;;
13374;SDS011;6756;51.354;15.754;2023-03-01T00:14:23;40.97;;;18.00;;
13374;SDS011;6756;51.354;15.754;2023-03-01T00:18:24;44.80;;;20.50;;
13374;SDS011;6756;51.354;15.754;2023-03-01T00:22:26;46.77;;;21.57;;
13374;SDS011;6756;51.354;15.754;2023-03-01T00:26:28;43.80;;;20.33;;
13374;SDS011;6756;51.354;15.754;2023-03-01T00:30:29;41.77;;;19.47;;
13374;SDS011;6756;51.354;15.754;2023-03-01T00:34:30;45.00;;;20.77;;
13374;SDS011;6756;51.354;15.754;2023-03-01T00:38:34;56.10;;;23.80;;
13374;SDS011;6756;51.354;15.754;2023-03-01T00:42:39;64.17;;;26.93;;
13374;SDS011;6756;51.354;15.754;2023-03-01T00:46:40;57.40;;;24.47;;
13374;SDS011;6756;51.354;15.754;2023-03-01T00:50:40;55.70;;;24.13;;
13374;SDS011;6756;51.354;15.754;2023-03-01T00:54:41;51.37;;;23.10;;
13374;SDS011;6756;51.354;15.754;2023-03-01T00:58:42;52.20;;;21.93;;
13374;SDS011;6756;51.354;15.754;2023-03-01T01:02:43;49.50;;;22.30;;
13374;SDS011;6756;51.354;15.754;2023-03-01T01:06:45;50.50;;;23.33;;
13374;SDS011;6756;51.354;15.754;2023-03-01T01:10:46;51.03;;;23.37;;
13374;SDS011;6756;51.354;15.754;2023-03-01T01:14:47;47.47;;;21.63;;
13374;SDS011;6756;51.354;15.754;2023-03-01T01:18:48;43.17;;;21.63;;
13374;SDS011;6756;51.354;15.754;2023-03-01T01:22:49;53.87;;;24.53;;
13374;SDS011;6756;51.354;15.754;2023-03-01T01:26:51;91.97;;;37.30;;
13374;SDS011;6756;51.354;15.754;2023-03-01T01:30:52;101.50;;;41.83;;
13374;SDS011;6756;51.354;15.754;2023-03-01T01:34:52;83.73;;;36.43;;
13374;SDS011;6756;51.354;15.754;2023-03-01T01:38:53;73.67;;;30.17;;
13374;SDS011;6756;51.354;15.754;2023-03-01T01:42:54;54.30;;;25.40;;
13374;SDS011;6756;51.354;15.754;2023-03-01T01:47:00;48.20;;;21.87;;
13374;SDS011;6756;51.354;15.754;2023-03-01T01:51:04;43.73;;;19.57;;
13374;SDS011;6756;51.354;15.754;2023-03-01T01:55:07;46.03;;;21.37;;
13374;SDS011;6756;51.354;15.754;2023-03-01T01:59:11;51.77;;;21.93;;
13374;SDS011;6756;51.354;15.754;2023-03-01T02:03:13;42.30;;;20.83;;
13374;SDS011;6756;51.354;15.754;2023-03-01T02:07:22;39.53;;;19.57;;
13374;SDS011;6756;51.354;15.754;2023-03-01T02:11:24;53.37;;;22.60;;
13374;SDS011;6756;51.354;15.754;2023-03-01T02:15:27;61.77;;;25.10;;
13374;SDS011;6756;51.354;15.754;2023-03-01T02:19:37;60.23;;;26.23;;
13374;SDS011;6756;51.354;15.754;2023-03-01T02:23:53;43.47;;;19.80;;
13374;SDS011;6756;51.354;15.754;2023-03-01T02:28:07;41.70;;;18.83;;
13374;SDS011;6756;51.354;15.754;2023-03-01T02:32:18;37.10;;;18.20;;
13374;SDS011;6756;51.354;15.754;2023-03-01T02:36:26;46.90;;;20.27;;
13374;SDS011;6756;51.354;15.754;2023-03-01T02:40:30;42.70;;;19.00;;
13374;SDS011;6756;51.354;15.754;2023-03-01T02:44:31;43.43;;;19.07;;
13374;SDS011;6756;51.354;15.754;2023-03-01T02:48:48;39.10;;;17.83;;
13374;SDS011;6756;51.354;15.754;2023-03-01T02:53:00;37.33;;;16.87;;
13374;SDS011;6756;51.354;15.754;2023-03-01T02:57:02;37.07;;;16.40;;
13374;SDS011;6756;51.354;15.754;2023-03-01T03:01:03;39.43;;;16.73;;
13374;SDS011;6756;51.354;15.754;2023-03-01T03:05:08;33.97;;;16.13;;
13374;SDS011;6756;51.354;15.754;2023-03-01T03:09:12;29.87;;;14.97;;
13374;SDS011;6756;51.354;15.754;2023-03-01T03:13:13;38.23;;;15.53;;
13374;SDS011;6756;51.354;15.754;2023-03-01T03:17:15;32.57;;;16.10;;
13374;SDS011;6756;51.354;15.754;2023-03-01T03:21:16;32.43;;;17.10;;
13374;SDS011;6756;51.354;15.754;2023-03-01T03:25:17;34.37;;;16.30;;
13374;SDS011;6756;51.354;15.754;2023-03-01T03:29:18;42.13;;;18.57;;
13374;SDS011;6756;51.354;15.754;2023-03-01T03:33:19;40.17;;;18.53;;
13374;SDS011;6756;51.354;15.754;2023-03-01T03:37:20;36.20;;;18.20;;
13374;SDS011;6756;51.354;15.754;2023-03-01T03:41:39;31.77;;;15.77;;
13374;SDS011;6756;51.354;15.754;2023-03-01T03:45:40;28.93;;;14.83;;
13374;SDS011;6756;51.354;15.754;2023-03-01T03:49:41;29.93;;;14.53;;
13374;SDS011;6756;51.354;15.754;2023-03-01T03:53:42;28.20;;;13.43;;
13374;SDS011;6756;51.354;15.754;2023-03-01T03:57:43;26.57;;;12.87;;
13374;SDS011;6756;51.354;15.754;2023-03-01T04:01:44;30.97;;;14.50;;
13374;SDS011;6756;51.354;15.754;2023-03-01T04:05:45;35.50;;;16.27;;
13374;SDS011;6756;51.354;15.754;2023-03-01T04:09:47;38.70;;;15.43;;
13374;SDS011;6756;51.354;15.754;2023-03-01T04:13:48;35.80;;;15.17;;
13374;SDS011;6756;51.354;15.754;2023-03-01T04:17:49;31.83;;;14.43;;
13374;SDS011;6756;51.354;15.754;2023-03-01T04:21:51;29.87;;;13.60;;
13374;SDS011;6756;51.354;15.754;2023-03-01T04:25:53;58.10;;;28.83;;
13374;SDS011;6756;51.354;15.754;2023-03-01T04:29:56;54.50;;;22.63;;
13374;SDS011;6756;51.354;15.754;2023-03-01T04:33:57;51.30;;;23.73;;
13374;SDS011;6756;51.354;15.754;2023-03-01T04:37:58;50.57;;;22.40;;
13374;SDS011;6756;51.354;15.754;2023-03-01T04:41:59;47.47;;;19.97;;
13374;SDS011;6756;51.354;15.754;2023-03-01T04:46:01;38.60;;;17.63;;
13374;SDS011;6756;51.354;15.754;2023-03-01T04:50:03;30.43;;;15.70;;
13374;SDS011;6756;51.354;15.754;2023-03-01T04:54:04;33.37;;;15.27;;
13374;SDS011;6756;51.354;15.754;2023-03-01T04:58:08;29.50;;;14.47;;
13374;SDS011;6756;51.354;15.754;2023-03-01T05:02:09;29.60;;;14.13;;
13374;SDS011;6756;51.354;15.754;2023-03-01T05:06:10;32.67;;;13.77;;
13374;SDS011;6756;51.354;15.754;2023-03-01T05:10:11;32.87;;;13.87;;
13374;SDS011;6756;51.354;15.754;2023-03-01T05:14:12;34.37;;;15.87;;
13374;SDS011;6756;51.354;15.754;2023-03-01T05:18:13;41.67;;;20.80;;
13374;SDS011;6756;51.354;15.754;2023-03-01T05:22:14;52.77;;;22.70;;
13374;SDS011;6756;51.354;15.754;2023-03-01T05:26:16;57.50;;;23.50;;
13374;SDS011;6756;51.354;15.754;2023-03-01T05:30:18;51.43;;;18.93;;
13374;SDS011;6756;51.354;15.754;2023-03-01T05:34:22;43.47;;;18.00;;
13374;SDS011;6756;51.354;15.754;2023-03-01T05:38:27;38.07;;;17.03;;
13374;SDS011;6756;51.354;15.754;2023-03-01T05:42:28;40.83;;;16.93;;
13374;SDS011;6756;51.354;15.754;2023-03-01T05:46:29;32.60;;;15.20;;
13374;SDS011;6756;51.354;15.754;2023-03-01T05:50:31;31.70;;;15.37;;
13374;SDS011;6756;51.354;15.754;2023-03-01T05:54:33;27.10;;;13.97;;
13374;SDS011;6756;51.354;15.754;2023-03-01T05:58:34;37.60;;;14.90;;
13374;SDS011;6756;51.354;15.754;2023-03-01T06:02:35;45.37;;;17.60;;
13374;SDS011;6756;51.354;15.754;2023-03-01T06:06:36;43.60;;;18.93;;
13374;SDS011;6756;51.354;15.754;2023-03-01T06:10:37;47.60;;;20.63;;
13374;SDS011;6756;51.354;15.754;2023-03-01T06:14:39;36.77;;;15.87;;
13374;SDS011;6756;51.354;15.754;2023-03-01T06:18:40;44.00;;;19.27;;
13374;SDS011;6756;51.354;15.754;2023-03-01T06:22:42;36.63;;;18.10;;
13374;SDS011;6756;51.354;15.754;2023-03-01T06:26:43;35.40;;;16.73;;
13374;SDS011;6756;51.354;15.754;2023-03-01T06:30:44;40.53;;;16.80;;
13374;SDS011;6756;51.354;15.754;2023-03-01T06:34:45;33.40;;;15.47;;
13374;SDS011;6756;51.354;15.754;2023-03-01T06:38:45;41.90;;;18.53;;
13374;SDS011;6756;51.354;15.754;2023-03-01T06:42:49;41.47;;;19.33;;
13374;SDS011;6756;51.354;15.754;2023-03-01T06:46:51;48.83;;;21.67;;
13374;SDS011;6756;51.354;15.754;2023-03-01T06:50:51;52.03;;;24.87;;
13374;SDS011;6756;51.354;15.754;2023-03-01T06:54:52;39.87;;;19.33;;
13374;SDS011;6756;51.354;15.754;2023-03-01T06:58:53;41.17;;;19.80;;
13374;SDS011;6756;51.354;15.754;2023-03-01T07:02:54;47.20;;;21.00;;
13374;SDS011;6756;51.354;15.754;2023-03-01T07:06:57;42.67;;;20.07;;
13374;SDS011;6756;51.354;15.754;2023-03-01T07:10:58;42.83;;;18.93;;
13374;SDS011;6756;51.354;15.754;2023-03-01T07:15:02;40.50;;;19.77;;
13374;SDS011;6756;51.354;15.754;2023-03-01T07:19:03;56.43;;;26.83;;
13374;SDS011;6756;51.354;15.754;2023-03-01T07:23:05;45.67;;;23.53;;
13374;SDS011;6756;51.354;15.754;2023-03-01T07:27:06;47.07;;;25.63;;
13374;SDS011;6756;51.354;15.754;2023-03-01T07:31:07;44.83;;;24.77;;
13374;SDS011;6756;51.354;15.754;2023-03-01T07:35:08;55.50;;;27.27;;
13374;SDS011;6756;51.354;15.754;2023-03-01T07:39:09;49.30;;;24.07;;
13374;SDS011;6756;51.354;15.754;2023-03-01T07:43:11;51.43;;;26.77;;
13374;SDS011;6756;51.354;15.754;2023-03-01T07:47:11;68.73;;;30.40;;
13374;SDS011;6756;51.354;15.754;2023-03-01T07:51:12;71.77;;;36.67;;
13374;SDS011;6756;51.354;15.754;2023-03-01T07:55:14;63.30;;;33.23;;
13374;SDS011;6756;51.354;15.754;2023-03-01T07:59:16;57.17;;;29.57;;
13374;SDS011;6756;51.354;15.754;2023-03-01T08:03:16;55.70;;;30.83;;
13374;SDS011;6756;51.354;15.754;2023-03-01T08:07:17;60.40;;;32.17;;
13374;SDS011;6756;51.354;15.754;2023-03-01T08:11:18;53.80;;;30.27;;
13374;SDS011;6756;51.354;15.754;2023-03-01T08:15:19;63.23;;;33.10;;
13374;SDS011;6756;51.354;15.754;2023-03-01T08:19:19;57.33;;;32.47;;
13374;SDS011;6756;51.354;15.754;2023-03-01T08:23:20;84.23;;;44.83;;
13374;SDS011;6756;51.354;15.754;2023-03-01T08:27:21;78.07;;;42.50;;
13374;SDS011;6756;51.354;15.754;2023-03-01T08:31:30;70.23;;;34.90;;
13374;SDS011;6756;51.354;15.754;2023-03-01T08:35:33;58.53;;;31.57;;
13374;SDS011;6756;51.354;15.754;2023-03-01T08:39:34;50.63;;;29.00;;
13374;SDS011;6756;51.354;15.754;2023-03-01T08:43:35;43.40;;;27.07;;
13374;SDS011;6756;51.354;15.754;2023-03-01T08:47:36;48.83;;;26.17;;
13374;SDS011;6756;51.354;15.754;2023-03-01T08:51:37;45.67;;;25.30;;
13374;SDS011;6756;51.354;15.754;2023-03-01T08:55:38;58.43;;;33.10;;
13374;SDS011;6756;51.354;15.754;2023-03-01T08:59:39;63.57;;;35.27;;
13374;SDS011;6756;51.354;15.754;2023-03-01T09:03:40;49.40;;;29.23;;
13374;SDS011;6756;51.354;15.754;2023-03-01T09:07:41;48.60;;;30.30;;
13374;SDS011;6756;51.354;15.754;2023-03-01T09:11:43;41.70;;;24.67;;
13374;SDS011;6756;51.354;15.754;2023-03-01T09:15:46;35.47;;;20.30;;
13374;SDS011;6756;51.354;15.754;2023-03-01T09:19:46;26.60;;;17.23;;
13374;SDS011;6756;51.354;15.754;2023-03-01T09:23:48;39.03;;;19.90;;
13374;SDS011;6756;51.354;15.754;2023-03-01T09:27:52;33.27;;;19.23;;
13374;SDS011;6756;51.354;15.754;2023-03-01T09:31:54;30.13;;;17.77;;
13374;SDS011;6756;51.354;15.754;2023-03-01T09:36:05;21.97;;;13.77;;
13374;SDS011;6756;51.354;15.754;2023-03-01T09:40:09;25.20;;;15.30;;
13374;SDS011;6756;51.354;15.754;2023-03-01T09:49:09;19.73;;;12.00;;
13374;SDS011;6756;51.354;15.754;2023-03-01T09:53:04;18.47;;;12.47;;
13374;SDS011;6756;51.354;15.754;2023-03-01T09:57:20;17.50;;;11.77;;
13374;SDS011;6756;51.354;15.754;2023-03-01T10:06:41;18.47;;;12.60;;
13374;SDS011;6756;51.354;15.754;2023-03-01T10:10:36;19.73;;;12.00;;
13374;SDS011;6756;51.354;15.754;2023-03-01T10:14:39;17.80;;;11.40;;
13374;SDS011;6756;51.354;15.754;2023-03-01T10:18:51;22.30;;;13.87;;
13374;SDS011;6756;51.354;15.754;2023-03-01T10:22:57;19.10;;;11.77;;
13374;SDS011;6756;51.354;15.754;2023-03-01T10:26:58;22.47;;;12.40;;
13374;SDS011;6756;51.354;15.754;2023-03-01T10:31:05;18.13;;;11.43;;
13374;SDS011;6756;51.354;15.754;2023-03-01T10:35:25;26.57;;;14.67;;
13374;SDS011;6756;51.354;15.754;2023-03-01T10:39:29;18.13;;;12.40;;
13374;SDS011;6756;51.354;15.754;2023-03-01T10:48:02;17.80;;;11.77;;
13374;SDS011;6756;51.354;15.754;2023-03-01T10:52:20;20.23;;;13.37;;
13374;SDS011;6756;51.354;15.754;2023-03-01T10:56:23;21.23;;;12.80;;
13374;SDS011;6756;51.354;15.754;2023-03-01T11:00:25;15.37;;;11.10;;
13374;SDS011;6756;51.354;15.754;2023-03-01T11:04:27;17.17;;;12.67;;
13374;SDS011;6756;51.354;15.754;2023-03-01T11:08:32;19.57;;;11.90;;
13374;SDS011;6756;51.354;15.754;2023-03-01T11:12:33;16.33;;;11.33;;
13374;SDS011;6756;51.354;15.754;2023-03-01T11:16:35;16.43;;;11.93;;
13374;SDS011;6756;51.354;15.754;2023-03-01T11:20:37;19.20;;;12.77;;
13374;SDS011;6756;51.354;15.754;2023-03-01T11:24:52;25.77;;;15.67;;
13374;SDS011;6756;51.354;15.754;2023-03-01T11:28:55;26.60;;;14.87;;
13374;SDS011;6756;51.354;15.754;2023-03-01T11:37:07;16.47;;;10.37;;
13374;SDS011;6756;51.354;15.754;2023-03-01T11:41:30;15.93;;;10.80;;
13374;SDS011;6756;51.354;15.754;2023-03-01T11:46:01;13.53;;;9.63;;
13374;SDS011;6756;51.354;15.754;2023-03-01T11:50:17;14.23;;;9.90;;
13374;SDS011;6756;51.354;15.754;2023-03-01T12:08:22;12.37;;;8.57;;
13374;SDS011;6756;51.354;15.754;2023-03-01T12:37:54;20.47;;;10.50;;
13374;SDS011;6756;51.354;15.754;2023-03-01T12:46:52;15.93;;;9.07;;
13374;SDS011;6756;51.354;15.754;2023-03-01T12:51:24;13.13;;;8.30;;
13374;SDS011;6756;51.354;15.754;2023-03-01T12:55:38;15.70;;;10.23;;
13374;SDS011;6756;51.354;15.754;2023-03-01T12:59:47;24.50;;;12.87;;
13374;SDS011;6756;51.354;15.754;2023-03-01T13:08:22;14.73;;;9.00;;
13374;SDS011;6756;51.354;15.754;2023-03-01T13:16:50;13.30;;;8.80;;
13374;SDS011;6756;51.354;15.754;2023-03-01T13:20:53;14.83;;;10.30;;
13374;SDS011;6756;51.354;15.754;2023-03-01T13:29:26;17.50;;;10.27;;
13374;SDS011;6756;51.354;15.754;2023-03-01T13:37:32;10.93;;;7.73;;
13374;SDS011;6756;51.354;15.754;2023-03-01T13:45:42;16.03;;;9.17;;
13374;SDS011;6756;51.354;15.754;2023-03-01T13:49:48;9.67;;;6.80;;
13374;SDS011;6756;51.354;15.754;2023-03-01T13:53:52;8.07;;;5.27;;
13374;SDS011;6756;51.354;15.754;2023-03-01T13:57:57;7.73;;;5.03;;
13374;SDS011;6756;51.354;15.754;2023-03-01T14:01:59;8.17;;;6.13;;
13374;SDS011;6756;51.354;15.754;2023-03-01T14:06:05;6.23;;;3.90;;
13374;SDS011;6756;51.354;15.754;2023-03-01T14:10:11;7.27;;;4.23;;
13374;SDS011;6756;51.354;15.754;2023-03-01T14:14:25;6.90;;;5.03;;
13374;SDS011;6756;51.354;15.754;2023-03-01T14:18:42;8.30;;;4.80;;
13374;SDS011;6756;51.354;15.754;2023-03-01T14:22:53;8.27;;;5.23;;
13374;SDS011;6756;51.354;15.754;2023-03-01T14:26:56;6.50;;;4.73;;
13374;SDS011;6756;51.354;15.754;2023-03-01T14:30:58;6.63;;;4.40;;
13374;SDS011;6756;51.354;15.754;2023-03-01T14:35:00;8.33;;;4.67;;
13374;SDS011;6756;51.354;15.754;2023-03-01T14:39:15;8.00;;;5.10;;
13374;SDS011;6756;51.354;15.754;2023-03-01T14:43:18;6.97;;;5.90;;
13374;SDS011;6756;51.354;15.754;2023-03-01T14:47:27;8.83;;;4.93;;
13374;SDS011;6756;51.354;15.754;2023-03-01T14:51:36;6.67;;;4.97;;
13374;SDS011;6756;51.354;15.754;2023-03-01T14:55:40;6.17;;;4.40;;
13374;SDS011;6756;51.354;15.754;2023-03-01T14:59:44;11.10;;;6.33;;
13374;SDS011;6756;51.354;15.754;2023-03-01T15:03:48;12.00;;;5.90;;
13374;SDS011;6756;51.354;15.754;2023-03-01T15:07:50;6.17;;;4.70;;
13374;SDS011;6756;51.354;15.754;2023-03-01T15:11:52;8.57;;;4.73;;
13374;SDS011;6756;51.354;15.754;2023-03-01T15:15:53;12.23;;;6.77;;
13374;SDS011;6756;51.354;15.754;2023-03-01T15:20:04;13.33;;;8.50;;
13374;SDS011;6756;51.354;15.754;2023-03-01T15:24:20;9.13;;;5.83;;
13374;SDS011;6756;51.354;15.754;2023-03-01T15:28:34;9.77;;;6.07;;
13374;SDS011;6756;51.354;15.754;2023-03-01T15:32:41;7.77;;;5.17;;
13374;SDS011;6756;51.354;15.754;2023-03-01T15:36:43;9.10;;;5.63;;
13374;SDS011;6756;51.354;15.754;2023-03-01T15:40:49;9.77;;;7.03;;
13374;SDS011;6756;51.354;15.754;2023-03-01T15:45:06;9.67;;;6.53;;
13374;SDS011;6756;51.354;15.754;2023-03-01T15:53:31;11.43;;;7.60;;
13374;SDS011;6756;51.354;15.754;2023-03-01T15:57:33;11.93;;;7.37;;
13374;SDS011;6756;51.354;15.754;2023-03-01T16:01:33;10.77;;;7.13;;
13374;SDS011;6756;51.354;15.754;2023-03-01T16:05:34;11.97;;;7.20;;
13374;SDS011;6756;51.354;15.754;2023-03-01T16:09:36;12.20;;;8.57;;
13374;SDS011;6756;51.354;15.754;2023-03-01T16:13:37;12.67;;;8.47;;
13374;SDS011;6756;51.354;15.754;2023-03-01T16:17:37;10.40;;;6.73;;
13374;SDS011;6756;51.354;15.754;2023-03-01T16:21:38;10.47;;;6.57;;
13374;SDS011;6756;51.354;15.754;2023-03-01T16:25:39;9.20;;;5.77;;
13374;SDS011;6756;51.354;15.754;2023-03-01T16:29:40;9.43;;;5.63;;
13374;SDS011;6756;51.354;15.754;2023-03-01T16:33:41;8.87;;;5.57;;
13374;SDS011;6756;51.354;15.754;2023-03-01T16:37:42;10.43;;;6.70;;
13374;SDS011;6756;51.354;15.754;2023-03-01T16:41:43;11.03;;;6.80;;
13374;SDS011;6756;51.354;15.754;2023-03-01T16:45:44;10.00;;;6.47;;
13374;SDS011;6756;51.354;15.754;2023-03-01T16:49:46;10.97;;;7.27;;
13374;SDS011;6756;51.354;15.754;2023-03-01T16:53:47;10.77;;;6.23;;
13374;SDS011;6756;51.354;15.754;2023-03-01T16:57:48;12.97;;;7.10;;
13374;SDS011;6756;51.354;15.754;2023-03-01T17:01:52;10.93;;;6.70;;
13374;SDS011;6756;51.354;15.754;2023-03-01T17:05:53;12.03;;;7.47;;
13374;SDS011;6756;51.354;15.754;2023-03-01T17:09:54;15.90;;;8.10;;
13374;SDS011;6756;51.354;15.754;2023-03-01T17:13:54;34.97;;;15.37;;
13374;SDS011;6756;51.354;15.754;2023-03-01T17:17:55;22.87;;;10.77;;
13374;SDS011;6756;51.354;15.754;2023-03-01T17:21:56;16.03;;;8.73;;
13374;SDS011;6756;51.354;15.754;2023-03-01T17:25:57;13.73;;;7.47;;
13374;SDS011;6756;51.354;15.754;2023-03-01T17:29:58;17.87;;;8.67;;
13374;SDS011;6756;51.354;15.754;2023-03-01T17:33:59;16.23;;;9.57;;
13374;SDS011;6756;51.354;15.754;2023-03-01T17:38:00;30.00;;;12.20;;
13374;SDS011;6756;51.354;15.754;2023-03-01T17:42:01;31.53;;;13.47;;
13374;SDS011;6756;51.354;15.754;2023-03-01T17:46:04;34.00;;;14.40;;
13374;SDS011;6756;51.354;15.754;2023-03-01T17:50:05;27.83;;;13.87;;
13374;SDS011;6756;51.354;15.754;2023-03-01T17:54:07;20.33;;;12.23;;
13374;SDS011;6756;51.354;15.754;2023-03-01T17:58:09;20.57;;;11.07;;
13374;SDS011;6756;51.354;15.754;2023-03-01T18:02:11;23.00;;;11.83;;
13374;SDS011;6756;51.354;15.754;2023-03-01T18:06:13;21.67;;;12.40;;
13374;SDS011;6756;51.354;15.754;2023-03-01T18:10:19;28.33;;;13.67;;
13374;SDS011;6756;51.354;15.754;2023-03-01T18:14:20;31.67;;;14.83;;
13374;SDS011;6756;51.354;15.754;2023-03-01T18:18:22;34.27;;;15.07;;
13374;SDS011;6756;51.354;15.754;2023-03-01T18:22:23;36.03;;;17.07;;
13374;SDS011;6756;51.354;15.754;2023-03-01T18:26:24;37.27;;;16.67;;
13374;SDS011;6756;51.354;15.754;2023-03-01T18:30:26;35.50;;;17.33;;
13374;SDS011;6756;51.354;15.754;2023-03-01T18:34:27;31.40;;;15.13;;
13374;SDS011;6756;51.354;15.754;2023-03-01T18:38:28;31.47;;;15.73;;
13374;SDS011;6756;51.354;15.754;2023-03-01T18:42:29;35.37;;;16.10;;
13374;SDS011;6756;51.354;15.754;2023-03-01T18:46:30;75.80;;;27.10;;
13374;SDS011;6756;51.354;15.754;2023-03-01T18:50:32;76.83;;;28.60;;
13374;SDS011;6756;51.354;15.754;2023-03-01T18:54:33;44.33;;;20.80;;
13374;SDS011;6756;51.354;15.754;2023-03-01T18:58:35;35.13;;;16.80;;
13374;SDS011;6756;51.354;15.754;2023-03-01T19:02:37;27.70;;;14.20;;
13374;SDS011;6756;51.354;15.754;2023-03-01T19:06:38;27.07;;;12.93;;
13374;SDS011;6756;51.354;15.754;2023-03-01T19:10:39;27.63;;;13.57;;
13374;SDS011;6756;51.354;15.754;2023-03-01T19:14:40;25.93;;;12.10;;
13374;SDS011;6756;51.354;15.754;2023-03-01T19:18:41;31.00;;;13.73;;
13374;SDS011;6756;51.354;15.754;2023-03-01T19:22:49;30.03;;;13.97;;
13374;SDS011;6756;51.354;15.754;2023-03-01T19:26:49;27.00;;;13.80;;
13374;SDS011;6756;51.354;15.754;2023-03-01T19:30:50;26.67;;;13.17;;
13374;SDS011;6756;51.354;15.754;2023-03-01T19:34:51;23.43;;;13.07;;
13374;SDS011;6756;51.354;15.754;2023-03-01T19:38:52;24.10;;;12.90;;
13374;SDS011;6756;51.354;15.754;2023-03-01T19:42:53;22.87;;;12.40;;
13374;SDS011;6756;51.354;15.754;2023-03-01T19:46:54;25.63;;;12.30;;
13374;SDS011;6756;51.354;15.754;2023-03-01T19:50:59;23.63;;;12.10;;
13374;SDS011;6756;51.354;15.754;2023-03-01T19:55:00;24.13;;;11.80;;
13374;SDS011;6756;51.354;15.754;2023-03-01T19:59:00;26.17;;;13.73;;
13374;SDS011;6756;51.354;15.754;2023-03-01T20:03:03;23.63;;;12.47;;
13374;SDS011;6756;51.354;15.754;2023-03-01T20:07:04;19.40;;;10.37;;
13374;SDS011;6756;51.354;15.754;2023-03-01T20:11:09;23.13;;;12.20;;
13374;SDS011;6756;51.354;15.754;2023-03-01T20:15:12;25.30;;;11.73;;
13374;SDS011;6756;51.354;15.754;2023-03-01T20:19:13;22.83;;;11.73;;
13374;SDS011;6756;51.354;15.754;2023-03-01T20:23:14;22.80;;;12.60;;
13374;SDS011;6756;51.354;15.754;2023-03-01T20:27:16;19.23;;;10.87;;
13374;SDS011;6756;51.354;15.754;2023-03-01T20:31:17;21.20;;;11.53;;
13374;SDS011;6756;51.354;15.754;2023-03-01T20:35:20;32.33;;;15.53;;
13374;SDS011;6756;51.354;15.754;2023-03-01T20:39:21;42.87;;;21.10;;
13374;SDS011;6756;51.354;15.754;2023-03-01T20:43:22;56.27;;;25.03;;
13374;SDS011;6756;51.354;15.754;2023-03-01T20:47:22;39.47;;;20.13;;
13374;SDS011;6756;51.354;15.754;2023-03-01T20:51:24;33.27;;;15.47;;
13374;SDS011;6756;51.354;15.754;2023-03-01T20:55:25;26.37;;;12.53;;
13374;SDS011;6756;51.354;15.754;2023-03-01T20:59:26;25.50;;;13.80;;
13374;SDS011;6756;51.354;15.754;2023-03-01T21:03:27;107.47;;;34.03;;
13374;SDS011;6756;51.354;15.754;2023-03-01T21:07:28;72.13;;;25.80;;
13374;SDS011;6756;51.354;15.754;2023-03-01T21:11:28;54.70;;;21.10;;
13374;SDS011;6756;51.354;15.754;2023-03-01T21:15:29;36.07;;;15.10;;
13374;SDS011;6756;51.354;15.754;2023-03-01T21:19:30;27.70;;;12.10;;
13374;SDS011;6756;51.354;15.754;2023-03-01T21:23:35;21.33;;;11.50;;
13374;SDS011;6756;51.354;15.754;2023-03-01T21:27:37;20.03;;;10.63;;
13374;SDS011;6756;51.354;15.754;2023-03-01T21:31:38;26.93;;;13.10;;
13374;SDS011;6756;51.354;15.754;2023-03-01T21:35:39;60.60;;;22.17;;
13374;SDS011;6756;51.354;15.754;2023-03-01T21:39:40;100.90;;;30.17;;
13374;SDS011;6756;51.354;15.754;2023-03-01T21:43:41;157.17;;;45.17;;
13374;SDS011;6756;51.354;15.754;2023-03-01T21:47:43;109.30;;;35.63;;
13374;SDS011;6756;51.354;15.754;2023-03-01T21:51:44;53.40;;;22.80;;
13374;SDS011;6756;51.354;15.754;2023-03-01T21:55:46;40.23;;;17.33;;
13374;SDS011;6756;51.354;15.754;2023-03-01T21:59:48;31.70;;;14.47;;
13374;SDS011;6756;51.354;15.754;2023-03-01T22:03:49;32.87;;;15.87;;
13374;SDS011;6756;51.354;15.754;2023-03-01T22:07:50;47.80;;;18.50;;
13374;SDS011;6756;51.354;15.754;2023-03-01T22:11:52;66.97;;;24.00;;
13374;SDS011;6756;51.354;15.754;2023-03-01T22:16:01;57.17;;;23.60;;
13374;SDS011;6756;51.354;15.754;2023-03-01T22:20:02;51.80;;;21.37;;
13374;SDS011;6756;51.354;15.754;2023-03-01T22:24:03;43.23;;;18.13;;
13374;SDS011;6756;51.354;15.754;2023-03-01T22:28:04;34.33;;;15.37;;
13374;SDS011;6756;51.354;15.754;2023-03-01T22:32:05;32.97;;;15.10;;
13374;SDS011;6756;51.354;15.754;2023-03-01T22:36:06;26.57;;;13.03;;
13374;SDS011;6756;51.354;15.754;2023-03-01T22:40:09;27.03;;;13.83;;
13374;SDS011;6756;51.354;15.754;2023-03-01T22:44:10;31.00;;;12.43;;
13374;SDS011;6756;51.354;15.754;2023-03-01T22:48:12;26.63;;;11.87;;
13374;SDS011;6756;51.354;15.754;2023-03-01T22:52:13;22.10;;;11.73;;
13374;SDS011;6756;51.354;15.754;2023-03-01T22:56:21;25.50;;;12.03;;
13374;SDS011;6756;51.354;15.754;2023-03-01T23:00:24;27.63;;;11.97;;
13374;SDS011;6756;51.354;15.754;2023-03-01T23:04:25;31.27;;;14.27;;
13374;SDS011;6756;51.354;15.754;2023-03-01T23:08:26;57.67;;;20.90;;
13374;SDS011;6756;51.354;15.754;2023-03-01T23:12:27;121.90;;;45.67;;
13374;SDS011;6756;51.354;15.754;2023-03-01T23:16:28;155.27;;;53.73;;
13374;SDS011;6756;51.354;15.754;2023-03-01T23:20:29;166.17;;;65.07;;
13374;SDS011;6756;51.354;15.754;2023-03-01T23:24:34;169.63;;;63.43;;
13374;SDS011;6756;51.354;15.754;2023-03-01T23:28:35;162.67;;;55.33;;
13374;SDS011;6756;51.354;15.754;2023-03-01T23:32:39;85.73;;;33.17;;
13374;SDS011;6756;51.354;15.754;2023-03-01T23:36:40;62.73;;;27.00;;
13374;SDS011;6756;51.354;15.754;2023-03-01T23:40:43;66.60;;;27.27;;
13374;SDS011;6756;51.354;15.754;2023-03-01T23:44:44;66.00;;;26.07;;
13374;SDS011;6756;51.354;15.754;2023-03-01T23:48:45;63.73;;;27.13;;
13374;SDS011;6756;51.354;15.754;2023-03-01T23:52:47;57.17;;;27.10;;
13374;SDS011;6756;51.354;15.754;2023-03-01T23:56:48;59.77;;;25.57;;
